Grande Mariner — WCY6594 — position and weather

sailwx.info

Track history (hours):
 
Tides and Currents Weather Stations Pressure Air Temp Water Temp Dewpoint Dewpoint Depression Visibility Wind Speed Wind Dir Waves Ship Positions

Grande Mariner

Owner: AMERICAN CANADIAN CARIBBEAN LINE INC, WARREN, RI. More information available from US FCC via Universal Licensing System and Coast Guard Vessel Documentation Center.

Last reported at 2015-Jul-04 06:30 UTC. Time now 2015-Jul-06 11:24 UTC.
Position N 41°27' W 070°36'.

Length 56 m; draft 2 m.

Type: Passenger vessel. MMSI: 369024000.

Date/timePositionNaut miles runAvg speedWind from/ knotsBaromVisibWave heightAir tempDewpointWater temp
2015-Jul-04 06:30N 41°27' W 070°36'0 0.0
2015-Jul-04 05:33N 41°27' W 070°36'0 0.0
2015-Jul-04 04:33N 41°27' W 070°36'0 0.0
2015-Jul-04 03:33N 41°27' W 070°36'0 0.0
2015-Jul-04 02:33N 41°27' W 070°36'0 0.0
2015-Jul-04 01:30N 41°27' W 070°36'0 0.0
2015-Jul-04 00:30N 41°27' W 070°36'0 0.0
2015-Jul-03 23:34N 41°27' W 070°36'0 0.0
2015-Jul-03 22:33N 41°27' W 070°36'0 0.0
2015-Jul-03 21:34N 41°27' W 070°36'0 0.0
2015-Jul-03 20:33N 41°27' W 070°36'0 0.0
2015-Jul-03 11:31N 41°27' W 070°36'0 0.0
2015-Jul-03 10:33N 41°27' W 070°36'0 0.0
2015-Jul-03 09:32N 41°27' W 070°36'0 0.0
2015-Jul-03 08:32N 41°27' W 070°36'0 0.0
2015-Jul-03 07:34N 41°27' W 070°36'0 0.0
2015-Jul-03 06:34N 41°27' W 070°36'0 0.0
2015-Jul-03 05:33N 41°27' W 070°36'0 0.0
2015-Jul-03 04:05N 41°27' W 070°36'0 0.0
2015-Jul-03 03:21N 41°27' W 070°36'0 0.0
2015-Jul-03 02:31N 41°27' W 070°36'0 0.0
2015-Jul-03 01:33N 41°27' W 070°36'7 6.7
2015-Jul-03 00:33N 41°28' W 070°27'8 8.2
2015-Jul-02 23:34N 41°27' W 070°16'7 7.1
2015-Jul-02 22:34N 41°23' W 070°08'6 2.0
2015-Jul-02 19:31N 41°17' W 070°05'0 0.0
2015-Jul-02 12:20N 41°17' W 070°05'30 6.3
2015-Jul-02 07:31N 41°28' W 070°43'6 6.3
2015-Jul-02 06:33N 41°27' W 070°51'4 3.6
2015-Jul-02 05:31N 41°25' W 070°55'0 0.0
2015-Jul-02 04:33N 41°25' W 070°55'0 0.0
2015-Jul-02 03:34N 41°25' W 070°55'0 0.0
2015-Jul-02 02:33N 41°25' W 070°55'0 0.0
2015-Jul-02 01:32N 41°25' W 070°55'0 0.0
2015-Jul-02 00:34N 41°25' W 070°55'9 8.1
2015-Jul-01 23:23N 41°25' W 071°08'19 1.7
2015-Jul-01 12:10N 41°43' W 071°17'0 0.0
2015-Jul-01 08:32N 41°43' W 071°17'0 0.0
2015-Jul-01 07:30N 41°43' W 071°17'0 0.0
2015-Jul-01 06:29N 41°43' W 071°17'0 0.0
2015-Jul-01 05:11N 41°43' W 071°17'0 0.0
2015-Jul-01 04:33N 41°43' W 071°17'0 0.0
2015-Jul-01 03:34N 41°43' W 071°17'0 0.0
2015-Jul-01 02:28N 41°43' W 071°17'0 0.0
2015-Jul-01 01:26N 41°43' W 071°17'0 0.0
2015-Jul-01 00:25N 41°43' W 071°17'0 0.0
2015-Jun-30 23:31N 41°43' W 071°17'3 3.2
2015-Jun-30 22:33N 41°41' W 071°19'3 0.3
2015-Jun-30 12:19N 41°43' W 071°17'7 8.9
2015-Jun-30 11:31N 41°36' W 071°18'8 8.0
2015-Jun-30 10:33N 41°29' W 071°20'0 0.0
2015-Jun-30 09:33N 41°29' W 071°20'0 0.0
2015-Jun-30 08:34N 41°29' W 071°20'0 0.0
2015-Jun-30 07:33N 41°29' W 071°20'0 0.0
2015-Jun-30 06:33N 41°29' W 071°20'0 0.0
2015-Jun-30 05:33N 41°29' W 071°20'0 0.0
2015-Jun-30 04:29N 41°29' W 071°20'0 0.0
2015-Jun-30 03:33N 41°29' W 071°20'0 0.0
2015-Jun-30 02:09N 41°29' W 071°20'0 0.0
2015-Jun-30 01:33N 41°29' W 071°20'0 0.0
2015-Jun-30 00:26N 41°29' W 071°20'0 0.0
2015-Jun-29 23:34N 41°29' W 071°20'0 0.0
2015-Jun-29 22:34N 41°29' W 071°20'0 0.0
2015-Jun-29 21:32N 41°29' W 071°20'0 0.0
2015-Jun-29 19:32N 41°29' W 071°20'0 0.0
2015-Jun-29 17:23N 41°29' W 071°20'0 0.0
2015-Jun-29 15:25N 41°29' W 071°20'0 0.0
2015-Jun-29 14:31N 41°29' W 071°20'0 0.0
2015-Jun-29 12:23N 41°29' W 071°20'11 6.2
2015-Jun-29 10:33N 41°40' W 071°16'0 0.0
2015-Jun-29 09:33N 41°40' W 071°16'0 0.0
2015-Jun-29 08:33N 41°40' W 071°16'0 0.0
2015-Jun-29 07:33N 41°40' W 071°16'0 0.0
2015-Jun-29 06:33N 41°40' W 071°16'0 0.0
2015-Jun-29 05:33N 41°40' W 071°16'0 0.0
2015-Jun-29 04:33N 41°40' W 071°16'0 0.0
2015-Jun-29 03:33N 41°40' W 071°16'0 0.0
2015-Jun-29 02:33N 41°40' W 071°16'0 0.0
2015-Jun-29 01:25N 41°40' W 071°16'0 0.0
2015-Jun-29 00:33N 41°40' W 071°16'0 0.0
2015-Jun-28 23:33N 41°40' W 071°16'0 0.0
2015-Jun-28 22:33N 41°40' W 071°16'3 1.9
2015-Jun-28 21:06N 41°39' W 071°13'5 8.5
2015-Jun-28 20:31N 41°34' W 071°13'9 9.5
2015-Jun-28 19:33N 41°25' W 071°11'17 0.5
2015-Jun-27 11:33N 41°37' W 070°54'7 7.4
2015-Jun-27 10:33N 41°32' W 070°47'8 8.2
2015-Jun-27 09:34N 41°30' W 070°37'3 2.6
2015-Jun-27 08:31N 41°27' W 070°36'0 0.0
2015-Jun-27 07:31N 41°27' W 070°36'0 0.0
2015-Jun-27 06:31N 41°27' W 070°36'0 0.0
2015-Jun-27 04:31N 41°27' W 070°36'0 0.0
2015-Jun-27 03:31N 41°27' W 070°36'0 0.0
2015-Jun-26 03:22N 41°27' W 070°36'0 0.0
2015-Jun-26 02:31N 41°27' W 070°36'0 0.0
2015-Jun-26 01:31N 41°27' W 070°36'1 0.9
2015-Jun-26 00:33N 41°28' W 070°35'1010.0
2015-Jun-25 23:33N 41°28' W 070°22'10 9.6
2015-Jun-25 22:33N 41°25' W 070°09'8 0.9
2015-Jun-25 13:23N 41°17' W 070°05'14 4.9
2015-Jun-25 10:33N 41°27' W 070°18'1110.7
2015-Jun-25 09:33N 41°29' W 070°32'1111.0
2015-Jun-25 08:33N 41°26' W 070°46'7 6.9
2015-Jun-25 07:33N 41°25' W 070°55'4 0.4
2015-Jun-24 22:09N 41°27' W 071°00'710.3
2015-Jun-24 21:29N 41°26' W 071°09'13 7.0
2015-Jun-24 19:33N 41°38' W 071°16'  
Track history (hours):
 
Tides and Currents Weather Stations Pressure Air Temp Water Temp Dewpoint Dewpoint Depression Visibility Wind Speed Wind Dir Waves Ship Positions

Grande Mariner

Owner: AMERICAN CANADIAN CARIBBEAN LINE INC, WARREN, RI. More information available from US FCC via Universal Licensing System and Coast Guard Vessel Documentation Center.

Last reported at 2015-Jul-04 06:30 UTC. Time now 2015-Jul-06 11:24 UTC.
Position N 41°27' W 070°36'.

Length 56 m; draft 2 m.

Type: Passenger vessel. MMSI: 369024000.

Date/timePositionNaut miles runAvg speedWind from/ knotsBaromVisibWave heightAir tempDewpointWater temp
2015-Jul-04 06:30N 41°27' W 070°36'0 0.0
2015-Jul-04 05:33N 41°27' W 070°36'0 0.0
2015-Jul-04 04:33N 41°27' W 070°36'0 0.0
2015-Jul-04 03:33N 41°27' W 070°36'0 0.0
2015-Jul-04 02:33N 41°27' W 070°36'0 0.0
2015-Jul-04 01:30N 41°27' W 070°36'0 0.0
2015-Jul-04 00:30N 41°27' W 070°36'0 0.0
2015-Jul-03 23:34N 41°27' W 070°36'0 0.0
2015-Jul-03 22:33N 41°27' W 070°36'0 0.0
2015-Jul-03 21:34N 41°27' W 070°36'0 0.0
2015-Jul-03 20:33N 41°27' W 070°36'0 0.0
2015-Jul-03 11:31N 41°27' W 070°36'0 0.0
2015-Jul-03 10:33N 41°27' W 070°36'0 0.0
2015-Jul-03 09:32N 41°27' W 070°36'0 0.0
2015-Jul-03 08:32N 41°27' W 070°36'0 0.0
2015-Jul-03 07:34N 41°27' W 070°36'0 0.0
2015-Jul-03 06:34N 41°27' W 070°36'0 0.0
2015-Jul-03 05:33N 41°27' W 070°36'0 0.0
2015-Jul-03 04:05N 41°27' W 070°36'0 0.0
2015-Jul-03 03:21N 41°27' W 070°36'0 0.0
2015-Jul-03 02:31N 41°27' W 070°36'0 0.0
2015-Jul-03 01:33N 41°27' W 070°36'7 6.7
2015-Jul-03 00:33N 41°28' W 070°27'8 8.2
2015-Jul-02 23:34N 41°27' W 070°16'7 7.1
2015-Jul-02 22:34N 41°23' W 070°08'6 2.0
2015-Jul-02 19:31N 41°17' W 070°05'0 0.0
2015-Jul-02 12:20N 41°17' W 070°05'30 6.3
2015-Jul-02 07:31N 41°28' W 070°43'6 6.3
2015-Jul-02 06:33N 41°27' W 070°51'4 3.6
2015-Jul-02 05:31N 41°25' W 070°55'0 0.0
2015-Jul-02 04:33N 41°25' W 070°55'0 0.0
2015-Jul-02 03:34N 41°25' W 070°55'0 0.0
2015-Jul-02 02:33N 41°25' W 070°55'0 0.0
2015-Jul-02 01:32N 41°25' W 070°55'0 0.0
2015-Jul-02 00:34N 41°25' W 070°55'9 8.1
2015-Jul-01 23:23N 41°25' W 071°08'19 1.7
2015-Jul-01 12:10N 41°43' W 071°17'0 0.0
2015-Jul-01 08:32N 41°43' W 071°17'0 0.0
2015-Jul-01 07:30N 41°43' W 071°17'0 0.0
2015-Jul-01 06:29N 41°43' W 071°17'0 0.0
2015-Jul-01 05:11N 41°43' W 071°17'0 0.0
2015-Jul-01 04:33N 41°43' W 071°17'0 0.0
2015-Jul-01 03:34N 41°43' W 071°17'0 0.0
2015-Jul-01 02:28N 41°43' W 071°17'0 0.0
2015-Jul-01 01:26N 41°43' W 071°17'0 0.0
2015-Jul-01 00:25N 41°43' W 071°17'0 0.0
2015-Jun-30 23:31N 41°43' W 071°17'3 3.2
2015-Jun-30 22:33N 41°41' W 071°19'3 0.3
2015-Jun-30 12:19N 41°43' W 071°17'7 8.9
2015-Jun-30 11:31N 41°36' W 071°18'8 8.0
2015-Jun-30 10:33N 41°29' W 071°20'0 0.0
2015-Jun-30 09:33N 41°29' W 071°20'0 0.0
2015-Jun-30 08:34N 41°29' W 071°20'0 0.0
2015-Jun-30 07:33N 41°29' W 071°20'0 0.0
2015-Jun-30 06:33N 41°29' W 071°20'0 0.0
2015-Jun-30 05:33N 41°29' W 071°20'0 0.0
2015-Jun-30 04:29N 41°29' W 071°20'0 0.0
2015-Jun-30 03:33N 41°29' W 071°20'0 0.0
2015-Jun-30 02:09N 41°29' W 071°20'0 0.0
2015-Jun-30 01:33N 41°29' W 071°20'0 0.0
2015-Jun-30 00:26N 41°29' W 071°20'0 0.0
2015-Jun-29 23:34N 41°29' W 071°20'0 0.0
2015-Jun-29 22:34N 41°29' W 071°20'0 0.0
2015-Jun-29 21:32N 41°29' W 071°20'0 0.0
2015-Jun-29 19:32N 41°29' W 071°20'0 0.0
2015-Jun-29 17:23N 41°29' W 071°20'0 0.0
2015-Jun-29 15:25N 41°29' W 071°20'0 0.0
2015-Jun-29 14:31N 41°29' W 071°20'0 0.0
2015-Jun-29 12:23N 41°29' W 071°20'11 6.2
2015-Jun-29 10:33N 41°40' W 071°16'0 0.0
2015-Jun-29 09:33N 41°40' W 071°16'0 0.0
2015-Jun-29 08:33N 41°40' W 071°16'0 0.0
2015-Jun-29 07:33N 41°40' W 071°16'0 0.0
2015-Jun-29 06:33N 41°40' W 071°16'0 0.0
2015-Jun-29 05:33N 41°40' W 071°16'0 0.0
2015-Jun-29 04:33N 41°40' W 071°16'0 0.0
2015-Jun-29 03:33N 41°40' W 071°16'0 0.0
2015-Jun-29 02:33N 41°40' W 071°16'0 0.0
2015-Jun-29 01:25N 41°40' W 071°16'0 0.0
2015-Jun-29 00:33N 41°40' W 071°16'0 0.0
2015-Jun-28 23:33N 41°40' W 071°16'0 0.0
2015-Jun-28 22:33N 41°40' W 071°16'3 1.9
2015-Jun-28 21:06N 41°39' W 071°13'5 8.5
2015-Jun-28 20:31N 41°34' W 071°13'9 9.5
2015-Jun-28 19:33N 41°25' W 071°11'17 0.5
2015-Jun-27 11:33N 41°37' W 070°54'7 7.4
2015-Jun-27 10:33N 41°32' W 070°47'8 8.2
2015-Jun-27 09:34N 41°30' W 070°37'3 2.6
2015-Jun-27 08:31N 41°27' W 070°36'0 0.0
2015-Jun-27 07:31N 41°27' W 070°36'0 0.0
2015-Jun-27 06:31N 41°27' W 070°36'0 0.0
2015-Jun-27 04:31N 41°27' W 070°36'0 0.0
2015-Jun-27 03:31N 41°27' W 070°36'0 0.0
2015-Jun-26 03:22N 41°27' W 070°36'0 0.0
2015-Jun-26 02:31N 41°27' W 070°36'0 0.0
2015-Jun-26 01:31N 41°27' W 070°36'1 0.9
2015-Jun-26 00:33N 41°28' W 070°35'1010.0
2015-Jun-25 23:33N 41°28' W 070°22'10 9.6
2015-Jun-25 22:33N 41°25' W 070°09'8 0.9
2015-Jun-25 13:23N 41°17' W 070°05'14 4.9
2015-Jun-25 10:33N 41°27' W 070°18'1110.7
2015-Jun-25 09:33N 41°29' W 070°32'1111.0
2015-Jun-25 08:33N 41°26' W 070°46'7 6.9
2015-Jun-25 07:33N 41°25' W 070°55'4 0.4
2015-Jun-24 22:09N 41°27' W 071°00'710.3
2015-Jun-24 21:29N 41°26' W 071°09'13 7.0
2015-Jun-24 19:33N 41°38' W 071°16'  

Dump ship's entire track history